WXForecasting.com
Aberdeen, SD - Weather Station Data
 
Daily Summary for July 24, 2017 Units:  English    Metric   Both
« Previous Day
Next Day »
Daily Weekly Monthly Yearly Custom
  Current: High: Low: Average:
Temperature: 80.3 °F 80.3 °F 60.5 °F 66.8 °F
Dew Point: 67.0 °F 67.0 °F 57.0 °F 60.8 °F
Humidity: 64 % 89 % 64 % 81 %
Wind Speed: 5.0 mph 9.0 mph 0.0 mph 2 mph
Wind Gust: 10.0 mph 15.0 mph - -
Wind:South - - SE
Pressure: 29.88 in 29.96 in 29.88 in -
Precipitation: 0.00 in      
Historical Graphs
 
 
Tabular Data for July 24, 2017
Time Temperature Dew Point Pressure Wind Wind Speed Wind Gust Humidity Rainfall Rate (Hourly) solar Conditions
00:00 67.0 °F 60.0 °F 29.96 in Calm   4.0 mph 79 % 0.00 in 0 W/m2
00:15 66.4 °F 60.0 °F 29.96 in Calm   6.0 mph 81 % 0.00 in 0 W/m2
00:31 65.9 °F 60.0 °F 29.96 in Calm   4.0 mph 81 % 0.00 in 0 W/m2
00:46 65.3 °F 60.0 °F 29.95 in Calm   3.0 mph 82 % 0.00 in 0 W/m2
01:01 64.9 °F 60.0 °F 29.95 in Calm   6.0 mph 83 % 0.00 in 0 W/m2
01:16 64.5 °F 60.0 °F 29.94 in East 1.0 mph 4.0 mph 84 % 0.00 in 0 W/m2
01:31 64.2 °F 59.0 °F 29.94 in East 1.0 mph 3.0 mph 84 % 0.00 in 0 W/m2
01:46 63.7 °F 59.0 °F 29.94 in East 1.0 mph 3.0 mph 84 % 0.00 in 0 W/m2
02:01 63.4 °F 59.0 °F 29.94 in East 1.0 mph 4.0 mph 85 % 0.00 in 0 W/m2
02:16 62.9 °F 59.0 °F 29.94 in East 2.0 mph 4.0 mph 86 % 0.00 in 0 W/m2
02:31 62.7 °F 59.0 °F 29.94 in Calm   4.0 mph 86 % 0.00 in 0 W/m2
02:46 62.5 °F 59.0 °F 29.94 in East 1.0 mph 3.0 mph 87 % 0.00 in 0 W/m2
03:01 62.5 °F 59.0 °F 29.94 in Calm   3.0 mph 87 % 0.00 in 0 W/m2
03:16 62.5 °F 59.0 °F 29.95 in Calm   2.0 mph 87 % 0.00 in 0 W/m2
03:31 62.4 °F 59.0 °F 29.94 in ESE 1.0 mph 3.0 mph 87 % 0.00 in 0 W/m2
03:46 62.3 °F 58.0 °F 29.95 in Calm   3.0 mph 87 % 0.00 in 0 W/m2
04:01 62.3 °F 58.0 °F 29.95 in Calm   3.0 mph 87 % 0.00 in 0 W/m2
04:16 62.3 °F 58.0 °F 29.96 in SSW 1.0 mph 6.0 mph 86 % 0.00 in 0 W/m2
04:31 62.1 °F 58.0 °F 29.96 in Calm   4.0 mph 86 % 0.00 in 0 W/m2
04:46 61.7 °F 58.0 °F 29.96 in SSW 1.0 mph 4.0 mph 87 % 0.00 in 0 W/m2
05:01 61.3 °F 57.0 °F 29.96 in Calm   3.0 mph 87 % 0.00 in 0 W/m2
05:16 61.1 °F 58.0 °F 29.96 in Calm   3.0 mph 88 % 0.00 in 0 W/m2
05:31 60.8 °F 57.0 °F 29.95 in Calm   2.0 mph 88 % 0.00 in 0 W/m2
05:46 60.6 °F 57.0 °F 29.95 in South 2.0 mph 3.0 mph 88 % 0.00 in 0 W/m2
06:01 60.5 °F 57.0 °F 29.95 in Calm   5.0 mph 89 % 0.00 in 7 W/m2
06:31 60.7 °F 58.0 °F 29.95 in Calm   2.0 mph 89 % 0.00 in 16 W/m2
06:46 60.7 °F 58.0 °F 29.94 in Calm   5.0 mph 89 % 0.00 in 33 W/m2
07:01 60.7 °F 58.0 °F 29.94 in Calm   2.0 mph 89 % 0.00 in 54 W/m2
07:16 61.2 °F 58.0 °F 29.95 in SSE 1.0 mph 5.0 mph 89 % 0.00 in 90 W/m2
07:31 62.3 °F 59.0 °F 29.94 in SE 2.0 mph 4.0 mph 89 % 0.00 in 123 W/m2
07:46 63.4 °F 60.0 °F 29.95 in Calm   4.0 mph 88 % 0.00 in 130 W/m2
08:01 64.1 °F 60.0 °F 29.94 in SE 1.0 mph 7.0 mph 86 % 0.00 in 148 W/m2
08:17 64.7 °F 60.0 °F 29.94 in SE 2.0 mph 7.0 mph 85 % 0.00 in 174 W/m2
08:31 65.6 °F 61.0 °F 29.95 in South 1.0 mph 10.0 mph 85 % 0.00 in 202 W/m2
08:47 66.4 °F 61.0 °F 29.96 in South 8.0 mph 12.0 mph 83 % 0.00 in 200 W/m2
09:01 66.8 °F 61.0 °F 29.95 in ESE 2.0 mph 11.0 mph 82 % 0.00 in 206 W/m2
09:17 67.7 °F 62.0 °F 29.93 in SSW 1.0 mph 8.0 mph 81 % 0.00 in 295 W/m2
09:32 68.6 °F 62.0 °F 29.93 in ESE 1.0 mph 11.0 mph 79 % 0.00 in 320 W/m2
09:47 69.5 °F 62.0 °F 29.93 in South 7.0 mph 10.0 mph 78 % 0.00 in 332 W/m2
10:02 70.5 °F 63.0 °F 29.93 in SE 2.0 mph 10.0 mph 77 % 0.00 in 450 W/m2
10:17 71.8 °F 64.0 °F 29.92 in ESE 4.0 mph 9.0 mph 75 % 0.00 in 383 W/m2
10:32 73.9 °F 66.0 °F 29.91 in ESE 4.0 mph 8.0 mph 75 % 0.00 in 554 W/m2
10:47 73.4 °F 64.0 °F 29.90 in SSE 3.0 mph 14.0 mph 73 % 0.00 in 476 W/m2
11:02 75.2 °F 65.0 °F 29.89 in SSE 3.0 mph 13.0 mph 71 % 0.00 in 492 W/m2
11:17 74.4 °F 65.0 °F 29.89 in SE 3.0 mph 10.0 mph 73 % 0.00 in 276 W/m2
11:32 74.9 °F 65.0 °F 29.88 in SE 8.0 mph 9.0 mph 72 % 0.00 in 452 W/m2
11:47 76.7 °F 66.0 °F 29.88 in SSE 8.0 mph 15.0 mph 69 % 0.00 in 780 W/m2
12:02 78.0 °F 66.0 °F 29.89 in SE 4.0 mph 10.0 mph 66 % 0.00 in 677 W/m2
12:17 78.1 °F 66.0 °F 29.90 in South 9.0 mph 12.0 mph 66 % 0.00 in 462 W/m2
12:32 77.2 °F 66.0 °F 29.90 in SSW 4.0 mph 9.0 mph 68 % 0.00 in 353 W/m2
12:47 77.7 °F 66.0 °F 29.88 in ESE 3.0 mph 8.0 mph 68 % 0.00 in 320 W/m2
13:02 78.4 °F 67.0 °F 29.88 in SSE 7.0 mph 10.0 mph 67 % 0.00 in 478 W/m2
13:17 80.3 °F 67.0 °F 29.88 in South 5.0 mph 10.0 mph 64 % 0.00 in 601 W/m2
Compliments of Weather Underground - 1 mb

39 Visitors online right now
Max visitors today: 102 at 11:00 am EDT
This month: 106 at 07-16-2017 08:33 am EDT
This year: 117 at 06-05-2017 05:49 pm EDT
All time: 117 at 06-05-2017 05:49 pm EDT
See Who is Online